Flight Track Log - Related Links

Times and Time Zones

All times are in EDT time to prevent confusion due to time zone crossing. See the FIN666 flight status page for this flight to view local times or setup timezone preferences in your user account.

Time Position Orientation Groundspeed Altitude Reporting Facility
EDT Latitude Longitude Course Direction KTS MPH feet Rate Location/Type
Fri 07:40:00 AM 55.8420 13.1192 49° Northeast  Level Estimated
Fri 07:41:00 AM 55.9164 13.2747 50° Northeast  Level Estimated
Fri 07:42:00 AM 55.9905 13.4309 50° Northeast  Level Estimated
Fri 07:43:00 AM 56.0644 13.5877 50° Northeast  Level Estimated
Fri 07:44:00 AM 56.1403 13.7497 50° Northeast  Level Estimated
Fri 07:45:00 AM 56.2160 13.9124 50° Northeast  Level Estimated
Fri 07:46:00 AM 56.2914 14.0757 50° Northeast  Level Estimated
Fri 07:47:00 AM 56.3667 14.2396 50° Northeast  Level Estimated
Fri 07:48:00 AM 56.4417 14.4042 50° Northeast  Level Estimated
Fri 07:49:00 AM 56.5165 14.5695 51° Northeast  Level Estimated
Fri 07:50:00 AM 56.5911 14.7353 51° Northeast  Level Estimated
Fri 07:51:00 AM 56.6655 14.9019 51° Northeast  Level Estimated
Fri 07:52:00 AM 56.7396 15.0691 51° Northeast  Level Estimated
Fri 07:53:00 AM 56.8136 15.2370 51° Northeast  Level Estimated
Fri 07:54:00 AM 56.8872 15.4055 51° Northeast  Level Estimated
Fri 07:55:00 AM 56.9607 15.5747 51° Northeast  Level Estimated
Fri 07:56:00 AM 57.0340 15.7446 52° Northeast  Level Estimated
Fri 07:57:00 AM 57.1070 15.9151 52° Northeast  Level Estimated
Fri 07:58:00 AM 57.1797 16.0863 52° Northeast  Level Estimated
Fri 07:59:00 AM 57.2523 16.2582 52° Northeast  Level Estimated
Fri 08:00:00 AM 57.3246 16.4307 52° Northeast  Level Estimated
Fri 08:01:00 AM 57.3967 16.6040 52° Northeast  Level Estimated
Fri 08:02:00 AM 57.4685 16.7779 52° Northeast  Level Estimated
Fri 08:03:00 AM 57.5401 16.9525 53° Northeast  Level Estimated
Fri 08:04:00 AM 57.6114 17.1278 53° Northeast  Level Estimated
Fri 08:05:00 AM 57.6825 17.3038 53° Northeast  Level Estimated
Fri 08:06:00 AM 57.7534 17.4804 53° Northeast  Level Estimated
Fri 08:07:00 AM 57.8240 17.6578 53° Northeast  Level Estimated
Fri 08:08:00 AM 57.8944 17.8358 53° Northeast  Level Estimated
Fri 08:09:00 AM 57.9645 18.0146 53° Northeast  Level Estimated
Fri 08:10:00 AM 58.0343 18.1941 54° Northeast  Level Estimated
Fri 08:11:00 AM 58.1040 18.3742 54° Northeast  Level Estimated
Fri 08:12:00 AM 58.1733 18.5551 54° Northeast  Level Estimated
Fri 08:13:00 AM 58.2424 18.7366 54° Northeast  Level Estimated
Fri 08:14:00 AM 58.3112 18.9189 54° Northeast  Level Estimated
Fri 08:15:00 AM 58.3798 19.1019 54° Northeast  Level Estimated
Fri 08:16:00 AM 58.4481 19.2856 55° Northeast  Level Estimated
Fri 08:17:00 AM 58.5162 19.4700 55° Northeast  Level Estimated
Fri 08:18:00 AM 58.5840 19.6551 55° Northeast  Level Estimated
Fri 08:19:00 AM 58.6515 19.8409 55° Northeast  Level Estimated
Fri 08:20:00 AM 58.7188 20.0275 55° Northeast  Level Estimated
Fri 08:21:00 AM 58.7857 20.2148 55° Northeast  Level Estimated
Fri 08:22:00 AM 58.8524 20.4028 55° Northeast  Level Estimated
Fri 08:23:00 AM 58.9189 20.5915 56° Northeast  Level Estimated
Fri 08:24:00 AM 58.9850 20.7809 56° Northeast  Level Estimated
Fri 08:25:00 AM 59.0509 20.9711 56° Northeast  Level Estimated
Fri 08:26:00 AM 59.1096 21.1419 56° Northeast  Level Estimated
Fri 08:27:00 AM 59.1681 21.3132 56° Northeast  Level Estimated
Fri 08:28:00 AM 59.2264 21.4852 56° Northeast  Level Estimated
Fri 08:29:00 AM 59.2844 21.6577 57° Northeast  Level Estimated
Fri 08:30:00 AM 59.3422 21.8308 57° Northeast  Level Estimated
Fri 08:31:00 AM 59.3998 22.0046 57° Northeast  Level Estimated
Fri 08:32:00 AM 59.4571 22.1789 57° Northeast  Level Estimated
Fri 08:33:00 AM 59.5142 22.3537 57° Northeast  Level Estimated
Fri 08:34:00 AM 59.5711 22.5292 57° Northeast  Level Estimated
Fri 08:35:00 AM 59.6277 22.7053 57° Northeast  Level Estimated
Fri 08:36:00 AM 59.6841 22.8820 58° Northeast  Level Estimated
Fri 08:37:00 AM 59.7403 23.0592 58° Northeast  Level Estimated
Fri 08:38:00 AM 59.7962 23.2371 58° Northeast  Level Estimated
Fri 08:39:00 AM 59.8519 23.4156 58° Northeast  Level Estimated
Fri 08:40:00 AM 59.9073 23.5946 58° Northeast  Level Estimated
Fri 08:41:00 AM 59.9625 23.7743 58° Northeast  Level Estimated
Fri 08:42:00 AM 60.0175 23.9545 59° Northeast  Level Estimated
Fri 08:43:00 AM 60.0722 24.1354 59° Northeast  Level Estimated
Fri 08:44:00 AM 60.1266 24.3168 59° Northeast  Level Estimated
Fri 08:45:00 AM 60.1808 24.4988 59° Northeast  Level Estimated
Fri 08:46:00 AM 60.2348 24.6815 59° Northeast  Level Estimated
Fri 08:47:00 AM 60.2885 24.8647 59° Northeast  Level Estimated
Fri 08:48:00 AM 60.3172 24.9633 60° Northeast  Level Estimated
Fri 08:49:00 AM 60.3172 24.9633 North  Level Estimated
Fri 08:50:00 AM 60.3172 24.9633 North  Level Estimated
Fri 08:51:00 AM 60.3172 24.9633 North  Level Estimated
Fri 08:52:00 AM 60.3172 24.9633 North  Level Estimated
Fri 08:53:00 AM 60.3172 24.9633 North  Level Estimated
Fri 08:54:00 AM 60.3172 24.9633 North  Level Estimated
Fri 08:55:00 AM 60.3172 24.9633 North  Level Estimated
Fri 08:56:00 AM 60.3172 24.9633 North  Level Estimated
Fri 08:57:00 AM 60.3172 24.9633 North  Level Estimated
Fri 08:58:00 AM 60.3172 24.9633 North  Level Estimated
Fri 08:59:00 AM 60.3172 24.9633 North  Level Estimated
Fri 09:00:00 AM 60.3172 24.9633 North  Level Estimated
Fri 09:01:00 AM 60.3172 24.9633 North  Level Estimated
Fri 09:02:00 AM 60.3172 24.9633 North  Level Estimated
Fri 09:03:00 AM 60.3172 24.9633 North  Level Estimated
Fri 09:04:00 AM 60.3172 24.9633 North  Level Estimated
Fri 09:05:00 AM 60.3172 24.9633 North  Level Estimated
Fri 09:06:00 AM 60.3172 24.9633 North  Level Estimated
Fri 09:07:00 AM 60.3172 24.9633 North  Level Estimated
Fri 09:08:00 AM 60.3172 24.9633 North  Level Estimated
Fri 09:09:00 AM 60.3172 24.9633 North  Level Estimated

Login

Don't have an account? Register now (free) for customized features, flight alerts, and more!